McLeansville, North Carolina
Current Conditions -  °F | °C
As of 10:54 AM on Saturday 22 Nov 2014 (Local Time) from KBUY Reporting Station
Clear Clear  
Wind Chill: 39°   Ceiling: Unl
Heat Index: 43°   Visibility: 10mi
Dew Point: 15°   Wind: 7mph
Humidity: 32%   Direction: 160°SSE
Pressure: 30.53"   Gusts: NA
Location:  36.1°N, 79.66°W
Report Text: KBUY 221554Z AUTO 16006KT 10SM CLR 06/M09 A3053 RMK AO2 SLP344 T00611094
Loading
Personal Weather Stations






























Interactive Weather Map New forecast layout! Learn more

10-Day Weather Forecast

Advertisements
Track Severe Weather on mobile